createdAt,value
2019-04-14T00:01:30.391Z,62.14
2019-04-14T00:04:09.522Z,61.80
2019-04-14T00:06:41.931Z,62.10
2019-04-14T00:09:16.336Z,62.06
2019-04-14T00:11:48.152Z,62.13
2019-04-14T00:14:20.650Z,61.94
2019-04-14T00:16:53.189Z,61.76
2019-04-14T00:19:24.247Z,61.85
2019-04-14T00:21:58.473Z,62.17
2019-04-14T00:24:31.255Z,61.86
2019-04-14T00:27:04.117Z,61.80
2019-04-14T00:29:35.410Z,61.83
2019-04-14T00:32:07.339Z,61.88
2019-04-14T00:34:57.194Z,61.90
2019-04-14T00:37:35.962Z,61.75
2019-04-14T00:40:12.905Z,61.60
2019-04-14T00:42:54.186Z,61.76
2019-04-14T00:45:38.337Z,61.97
2019-04-14T00:48:09.767Z,61.87
2019-04-14T00:50:36.629Z,62.05
2019-04-14T00:53:07.880Z,62.01
2019-04-14T00:55:40.106Z,62.04
2019-04-14T00:58:12.673Z,62.12
2019-04-14T01:00:45.104Z,62.22
2019-04-14T01:03:16.201Z,62.45
2019-04-14T01:05:48.186Z,62.46
2019-04-14T01:08:20.515Z,62.35
2019-04-14T01:10:51.990Z,62.20
2019-04-14T01:13:24.343Z,62.61
2019-04-14T01:16:04.793Z,62.66
2019-04-14T01:18:29.845Z,62.87
2019-04-14T01:21:02.409Z,62.87
2019-04-14T01:23:34.716Z,63.15
2019-04-14T01:26:05.126Z,63.12
2019-04-14T01:28:37.552Z,63.43
2019-04-14T01:31:09.741Z,63.50
2019-04-14T01:33:42.252Z,63.38
2019-04-14T01:36:13.449Z,63.34
2019-04-14T01:38:45.423Z,63.26
2019-04-14T01:41:17.146Z,63.85
2019-04-14T01:43:49.592Z,63.88
2019-04-14T01:46:25.938Z,64.06
2019-04-14T01:48:54.178Z,63.98
2019-04-14T01:51:29.469Z,64.18
2019-04-14T01:54:02.201Z,64.24
2019-04-14T01:56:47.283Z,64.42
2019-04-14T01:59:19.784Z,64.44
2019-04-14T02:01:52.539Z,64.24
2019-04-14T02:04:22.776Z,63.95
2019-04-14T02:06:55.212Z,64.24
2019-04-14T02:09:27.243Z,64.39
2019-04-14T02:11:59.434Z,64.40
2019-04-14T02:14:30.504Z,64.63
2019-04-14T02:17:04.223Z,64.76
2019-04-14T02:19:34.984Z,64.83
2019-04-14T02:22:07.335Z,64.87
2019-04-14T02:24:39.488Z,65.11
2019-04-14T02:27:11.965Z,65.11
2019-04-14T02:29:43.019Z,65.26
2019-04-14T02:32:42.590Z,65.22
2019-04-14T02:35:20.619Z,65.49
2019-04-14T02:40:33.424Z,65.93
2019-04-14T02:42:49.244Z,66.16
2019-04-14T02:45:33.143Z,65.93
2019-04-14T02:48:05.481Z,66.01
2019-04-14T02:50:26.764Z,66.15
2019-04-14T02:55:32.423Z,66.46
2019-04-14T02:58:10.239Z,66.32
2019-04-14T03:00:41.162Z,66.42
2019-04-14T03:03:16.102Z,66.45
2019-04-14T03:13:28.785Z,66.71
2019-04-14T03:16:02.369Z,66.56
2019-04-14T03:18:38.226Z,66.84
2019-04-14T03:21:26.305Z,66.44
2019-04-14T03:24:03.138Z,66.72
2019-04-14T03:26:47.427Z,66.78
2019-04-14T03:29:40.793Z,66.94
2019-04-14T03:34:43.534Z,67.08
2019-04-14T03:42:24.862Z,67.22
2019-04-14T03:47:22.073Z,67.37
2019-04-14T03:49:54.311Z,67.30
2019-04-14T03:52:31.708Z,67.71
2019-04-14T03:54:52.854Z,67.64
2019-04-14T03:57:06.294Z,67.96
2019-04-14T03:59:37.547Z,68.08
2019-04-14T04:02:09.585Z,68.00
2019-04-14T04:04:40.971Z,68.64
2019-04-14T04:07:12.526Z,68.56
2019-04-14T04:09:45.466Z,68.27
2019-04-14T04:12:16.544Z,68.28
2019-04-14T04:14:46.606Z,68.84
2019-04-14T04:17:23.246Z,68.84
2019-04-14T04:20:05.234Z,69.25
2019-04-14T04:22:52.949Z,69.47
2019-04-14T04:25:31.572Z,69.87
2019-04-14T04:28:04.500Z,69.84
2019-04-14T04:30:42.919Z,69.80
2019-04-14T04:33:30.635Z,70.36
2019-04-14T04:36:03.298Z,70.58
2019-04-14T04:38:36.220Z,70.97
2019-04-14T04:41:08.013Z,71.11
2019-04-14T04:43:39.343Z,71.36
2019-04-14T04:46:11.251Z,71.81
2019-04-14T04:48:43.649Z,72.45
2019-04-14T04:51:15.933Z,73.04
2019-04-14T04:53:48.347Z,73.24
2019-04-14T04:56:19.372Z,73.23
2019-04-14T04:58:50.416Z,73.29
2019-04-14T05:01:21.474Z,73.76
2019-04-14T05:03:51.608Z,73.78
2019-04-14T05:07:01.657Z,73.90
2019-04-14T05:09:38.791Z,73.91
2019-04-14T05:12:17.421Z,73.86
2019-04-14T05:14:52.361Z,74.36
2019-04-14T05:17:25.576Z,74.38
2019-04-14T05:19:56.606Z,74.43
2019-04-14T05:22:28.834Z,74.84
2019-04-14T05:24:59.890Z,74.57
2019-04-14T05:27:31.959Z,74.37
2019-04-14T05:30:03.102Z,74.27
2019-04-14T05:32:34.755Z,74.38
2019-04-14T05:35:07.437Z,74.28
2019-04-14T05:37:40.065Z,73.88
2019-04-14T05:40:12.381Z,74.00
2019-04-14T05:42:45.079Z,73.73
2019-04-14T05:45:17.557Z,73.55
2019-04-14T05:47:50.106Z,73.62
2019-04-14T05:50:21.240Z,73.69
2019-04-14T05:52:51.537Z,73.44
2019-04-14T05:55:22.570Z,73.20
2019-04-14T05:57:54.520Z,72.97
2019-04-14T06:00:25.945Z,72.67
2019-04-14T06:02:57.304Z,72.48
2019-04-14T06:05:29.642Z,71.87
2019-04-14T06:08:00.806Z,71.05
2019-04-14T06:10:31.958Z,69.93
2019-04-14T06:13:02.975Z,68.42
2019-04-14T06:15:35.375Z,66.50
2019-04-14T06:18:06.464Z,64.69
2019-04-14T06:20:39.342Z,62.59
2019-04-14T06:23:10.342Z,61.05
2019-04-14T06:25:40.396Z,59.44
2019-04-14T06:28:11.577Z,58.30
2019-04-14T06:30:52.981Z,57.71
2019-04-14T06:33:38.590Z,57.77
2019-04-14T06:36:27.852Z,57.04
2019-04-14T06:39:00.634Z,57.38
2019-04-14T06:41:31.552Z,56.49
2019-04-14T06:44:02.916Z,57.84
2019-04-14T06:46:33.900Z,59.21
2019-04-14T06:49:05.186Z,59.94
2019-04-14T06:51:36.162Z,60.07
2019-04-14T06:54:07.399Z,60.20
2019-04-14T06:56:38.524Z,59.79
2019-04-14T06:59:09.762Z,58.58
2019-04-14T07:01:40.879Z,58.03
2019-04-14T07:04:12.173Z,57.37
2019-04-14T07:06:43.185Z,56.67
2019-04-14T07:09:13.519Z,55.83
2019-04-14T07:11:44.777Z,55.78
2019-04-14T07:14:15.997Z,55.24
2019-04-14T07:16:47.148Z,55.09
2019-04-14T07:19:18.127Z,54.69
2019-04-14T07:21:49.396Z,54.25
2019-04-14T07:24:20.400Z,54.17
2019-04-14T07:26:51.611Z,54.13
2019-04-14T07:29:24.213Z,54.01
2019-04-14T07:31:56.982Z,53.92
2019-04-14T07:34:45.034Z,53.30
2019-04-14T07:37:32.643Z,53.68
2019-04-14T07:40:22.750Z,53.70
2019-04-14T07:43:01.773Z,52.94
2019-04-14T07:45:37.108Z,51.95
2019-04-14T07:48:09.963Z,51.67
2019-04-14T07:50:45.461Z,50.65
2019-04-14T07:53:18.233Z,50.11
2019-04-14T07:55:53.424Z,49.73
2019-04-14T07:58:34.868Z,49.46
2019-04-14T08:01:16.329Z,49.52
2019-04-14T08:03:52.344Z,49.30
2019-04-14T08:06:23.471Z,48.03
2019-04-14T08:08:53.748Z,47.53
2019-04-14T08:11:24.795Z,46.97
2019-04-14T08:13:55.756Z,47.08
2019-04-14T08:16:26.801Z,46.64
2019-04-14T08:18:57.711Z,45.10
2019-04-14T08:21:28.930Z,45.01
2019-04-14T08:24:00.000Z,44.56
2019-04-14T08:26:31.127Z,43.08
2019-04-14T08:29:02.218Z,42.39
2019-04-14T08:31:33.369Z,40.49
2019-04-14T08:34:04.473Z,40.04
2019-04-14T08:36:35.779Z,39.57
2019-04-14T08:39:07.489Z,39.73
2019-04-14T08:41:42.310Z,39.67
2019-04-14T08:44:18.063Z,40.17
2019-04-14T08:47:02.961Z,40.01
2019-04-14T08:49:41.336Z,39.35
2019-04-14T08:52:30.204Z,38.09
2019-04-14T08:55:14.915Z,37.64
2019-04-14T08:57:56.792Z,37.66
2019-04-14T09:00:29.743Z,36.57
2019-04-14T09:03:05.684Z,37.47
2019-04-14T09:05:38.583Z,36.48
2019-04-14T09:08:11.211Z,35.92
2019-04-14T09:10:49.889Z,34.56
2019-04-14T09:13:20.886Z,35.19
2019-04-14T09:15:52.092Z,35.93
2019-04-14T09:18:23.111Z,34.91
2019-04-14T09:20:54.183Z,34.48
2019-04-14T09:23:25.195Z,33.77
2019-04-14T09:25:56.517Z,33.42
2019-04-14T09:28:27.665Z,33.66
2019-04-14T09:30:59.275Z,32.57
2019-04-14T09:33:30.379Z,32.97
2019-04-14T09:36:00.469Z,33.13
2019-04-14T09:38:31.638Z,31.70
2019-04-14T09:41:02.544Z,32.54
2019-04-14T09:43:34.066Z,32.63
2019-04-14T09:46:05.101Z,32.21
2019-04-14T09:48:36.392Z,31.68
2019-04-14T09:51:07.541Z,31.89
2019-04-14T09:53:38.675Z,32.54
2019-04-14T09:56:09.564Z,31.62
2019-04-14T09:58:40.757Z,31.25
2019-04-14T10:01:11.847Z,30.54
2019-04-14T10:03:43.014Z,30.43
2019-04-14T10:06:14.031Z,30.61
2019-04-14T10:08:44.157Z,31.86
2019-04-14T10:11:15.406Z,31.36
2019-04-14T10:13:46.834Z,30.98
2019-04-14T10:16:18.296Z,30.44
2019-04-14T10:18:49.526Z,29.73
2019-04-14T10:21:20.742Z,30.12
2019-04-14T10:23:51.824Z,31.09
2019-04-14T10:26:22.962Z,31.10
2019-04-14T10:28:53.898Z,31.20
2019-04-14T10:31:25.188Z,30.83
2019-04-14T10:33:56.232Z,30.99
2019-04-14T10:36:27.540Z,30.83
2019-04-14T10:38:58.524Z,31.14
2019-04-14T10:41:28.650Z,30.95
2019-04-14T10:44:00.162Z,29.85
2019-04-14T10:46:31.219Z,30.46
2019-04-14T10:49:02.661Z,30.75
2019-04-14T10:51:34.148Z,30.12
2019-04-14T10:54:05.594Z,30.44
2019-04-14T10:56:36.660Z,31.10
2019-04-14T10:59:08.221Z,30.57
2019-04-14T11:01:39.120Z,29.50
2019-04-14T11:04:10.645Z,29.42
2019-04-14T11:06:43.250Z,27.77
2019-04-14T11:09:15.220Z,28.70
2019-04-14T11:11:46.232Z,28.72
2019-04-14T11:14:16.430Z,29.08
2019-04-14T11:16:47.737Z,28.99
2019-04-14T11:19:18.801Z,28.93
2019-04-14T11:21:49.948Z,29.37
2019-04-14T11:24:21.005Z,29.72
2019-04-14T11:26:52.237Z,29.85
2019-04-14T11:29:23.232Z,28.85
2019-04-14T11:31:56.023Z,29.38
2019-04-14T11:34:31.411Z,28.63
2019-04-14T11:37:04.139Z,27.16
2019-04-14T11:39:35.186Z,27.28
2019-04-14T11:42:06.664Z,26.62
2019-04-14T11:44:37.729Z,27.81
2019-04-14T11:47:09.422Z,27.85
2019-04-14T11:49:40.422Z,28.01
2019-04-14T11:52:10.697Z,28.36
2019-04-14T11:54:41.914Z,27.06
2019-04-14T11:57:12.889Z,26.99
2019-04-14T12:00:01.827Z,27.19
2019-04-14T12:02:34.414Z,28.10
2019-04-14T12:05:08.074Z,28.77
2019-04-14T12:07:40.631Z,29.24
2019-04-14T12:10:13.259Z,28.79
2019-04-14T12:12:44.310Z,29.55
2019-04-14T12:15:16.584Z,30.25
2019-04-14T12:17:47.816Z,32.79
2019-04-14T12:20:19.315Z,34.75
2019-04-14T12:22:51.316Z,34.68
2019-04-14T12:25:22.881Z,33.99
2019-04-14T12:27:53.775Z,32.84
2019-04-14T12:30:24.492Z,32.38
2019-04-14T12:32:55.713Z,30.56
2019-04-14T12:35:26.719Z,31.59
2019-04-14T12:37:57.960Z,31.41
2019-04-14T12:40:28.920Z,32.17
2019-04-14T12:43:04.577Z,32.30
2019-04-14T12:45:53.449Z,31.96
2019-04-14T12:48:30.095Z,31.92
2019-04-14T12:51:20.515Z,31.54
2019-04-14T12:53:51.787Z,30.88
2019-04-14T12:56:24.401Z,30.88
2019-04-14T12:58:59.806Z,30.69
2019-04-14T13:01:44.381Z,29.62
2019-04-14T13:04:15.662Z,30.13
2019-04-14T13:06:46.666Z,30.49
2019-04-14T13:09:18.169Z,31.96
2019-04-14T13:11:49.270Z,32.31
2019-04-14T13:14:20.588Z,34.43
2019-04-14T13:16:51.704Z,34.79
2019-04-14T13:19:22.170Z,35.27
2019-04-14T13:21:53.608Z,36.41
2019-04-14T13:24:24.658Z,36.64
2019-04-14T13:26:59.441Z,36.85
2019-04-14T13:29:30.517Z,37.35
2019-04-14T13:32:01.795Z,36.45
2019-04-14T13:34:32.789Z,36.35
2019-04-14T13:37:04.112Z,37.43
2019-04-14T13:39:35.557Z,36.89
2019-04-14T13:42:08.008Z,36.84
2019-04-14T13:44:39.429Z,37.41
2019-04-14T13:47:11.331Z,37.72
2019-04-14T13:49:46.778Z,38.32
2019-04-14T13:52:19.516Z,40.15
2019-04-14T13:54:53.206Z,40.89
2019-04-14T13:57:23.776Z,40.93
2019-04-14T13:59:55.032Z,41.90
2019-04-14T14:02:26.167Z,41.31
2019-04-14T14:04:57.374Z,41.55
2019-04-14T14:07:28.338Z,42.01
2019-04-14T14:09:59.418Z,42.85
2019-04-14T14:12:32.017Z,43.28
2019-04-14T14:15:14.104Z,43.08
2019-04-14T14:17:49.573Z,42.55
2019-04-14T14:20:28.366Z,44.50
2019-04-14T14:23:15.977Z,44.84
2019-04-14T14:26:04.682Z,44.80
2019-04-14T14:28:38.483Z,44.60
2019-04-14T14:31:08.671Z,44.42
2019-04-14T14:33:39.724Z,44.00
2019-04-14T14:36:10.950Z,42.96
2019-04-14T14:38:41.838Z,41.97
2019-04-14T14:41:13.660Z,41.80
2019-04-14T14:43:44.890Z,42.27
2019-04-14T14:46:31.424Z,43.57
2019-04-14T14:49:20.229Z,44.81
2019-04-14T14:51:52.154Z,47.10
2019-04-14T14:54:23.367Z,48.48
2019-04-14T14:56:54.423Z,49.58
2019-04-14T14:59:25.712Z,50.21
2019-04-14T15:01:56.852Z,50.95
2019-04-14T15:04:28.234Z,51.88
2019-04-14T15:06:59.444Z,53.00
2019-04-14T15:09:30.780Z,53.11
2019-04-14T15:12:01.844Z,53.20
2019-04-14T15:14:33.344Z,52.89
2019-04-14T15:17:04.519Z,53.41
2019-04-14T15:19:36.139Z,52.97
2019-04-14T15:22:07.199Z,52.64
2019-04-14T15:24:37.488Z,52.24
2019-04-14T15:27:08.687Z,52.17
2019-04-14T15:29:39.707Z,52.38
2019-04-14T15:32:10.844Z,53.04
2019-04-14T15:34:41.823Z,51.71
2019-04-14T15:37:12.850Z,51.63
2019-04-14T15:39:43.855Z,51.83
2019-04-14T15:42:15.120Z,51.91
2019-04-14T15:44:46.096Z,53.19
2019-04-14T15:47:17.830Z,53.37
2019-04-14T15:49:48.833Z,53.74
2019-04-14T15:52:20.082Z,53.98
2019-04-14T15:54:51.008Z,54.55
2019-04-14T15:57:30.302Z,54.67
2019-04-14T16:00:11.735Z,55.83
2019-04-14T16:02:45.990Z,55.36
2019-04-14T16:05:24.679Z,55.31
2019-04-14T16:07:57.300Z,54.78
2019-04-14T16:10:46.226Z,55.19
2019-04-14T16:13:34.407Z,55.20
2019-04-14T16:16:23.888Z,54.33
2019-04-14T16:18:56.457Z,53.36
2019-04-14T16:21:27.593Z,52.72
2019-04-14T16:23:58.973Z,51.69
2019-04-14T16:26:38.010Z,50.86
2019-04-14T16:29:10.608Z,51.41
2019-04-14T16:32:00.254Z,52.23
2019-04-14T16:34:45.355Z,52.32
2019-04-14T16:37:16.747Z,52.53
2019-04-14T16:39:47.887Z,53.80
2019-04-14T16:42:19.161Z,53.94
2019-04-14T16:44:50.107Z,54.50
2019-04-14T16:47:21.181Z,54.28
2019-04-14T16:49:52.236Z,54.51
2019-04-14T16:52:33.311Z,54.25
2019-04-14T16:55:10.198Z,54.79
2019-04-14T16:57:58.841Z,55.60
2019-04-14T17:00:31.468Z,56.10
2019-04-14T17:03:02.813Z,57.28
2019-04-14T17:05:34.958Z,58.52
2019-04-14T17:08:05.454Z,59.67
2019-04-14T17:10:36.569Z,60.86
2019-04-14T17:13:10.861Z,60.88
2019-04-14T17:15:46.979Z,62.04
2019-04-14T17:18:28.607Z,62.98
2019-04-14T17:21:07.079Z,62.92
2019-04-14T17:23:56.247Z,63.84
2019-04-14T17:26:45.402Z,64.49
2019-04-14T17:29:17.993Z,64.84
2019-04-14T17:32:07.147Z,65.75
2019-04-14T17:34:54.929Z,66.74
2019-04-14T17:37:42.880Z,67.42
2019-04-14T17:40:15.665Z,67.95
2019-04-14T17:42:48.478Z,68.23
2019-04-14T17:45:24.028Z,69.16
2019-04-14T17:47:56.801Z,69.13
2019-04-14T17:50:47.529Z,69.09
2019-04-14T17:53:20.606Z,69.72
2019-04-14T17:58:42.568Z,70.06
2019-04-14T18:01:33.309Z,70.84
2019-04-14T18:04:09.420Z,70.77
2019-04-14T18:06:42.099Z,70.90
2019-04-14T18:09:20.360Z,71.19
2019-04-14T18:12:08.354Z,70.91
2019-04-14T18:14:53.143Z,71.78
2019-04-14T18:17:25.763Z,71.54
2019-04-14T18:20:07.271Z,71.49
2019-04-14T18:22:38.462Z,71.71
2019-04-14T18:25:09.998Z,71.57
2019-04-14T18:27:45.081Z,71.74
2019-04-14T18:30:20.657Z,72.58
2019-04-14T18:32:53.249Z,72.80
2019-04-14T18:35:28.134Z,72.76
2019-04-14T18:38:16.488Z,73.02
2019-04-14T18:41:04.491Z,73.73
2019-04-14T18:43:46.558Z,73.89
2019-04-14T18:46:21.327Z,74.25
2019-04-14T18:48:56.934Z,74.30
2019-04-14T18:51:35.902Z,73.81
2019-04-14T18:54:08.804Z,74.25
2019-04-14T18:56:53.593Z,74.08
2019-04-14T18:59:35.418Z,74.28
2019-04-14T19:02:06.614Z,74.40
2019-04-14T19:04:37.856Z,74.15
2019-04-14T19:07:08.894Z,73.78
2019-04-14T19:09:40.148Z,73.99
2019-04-14T19:12:21.799Z,74.22
2019-04-14T19:15:10.768Z,74.58
2019-04-14T19:17:43.306Z,74.76
2019-04-14T19:20:16.262Z,75.29
2019-04-14T19:22:47.338Z,74.89
2019-04-14T19:25:18.544Z,74.64
2019-04-14T19:27:51.501Z,74.68
2019-04-14T19:30:24.793Z,74.47
2019-04-14T19:32:55.951Z,74.60
2019-04-14T19:35:26.989Z,74.74
2019-04-14T19:37:58.508Z,74.80
2019-04-14T19:40:29.496Z,74.69
2019-04-14T19:43:00.723Z,74.44
2019-04-14T19:45:31.706Z,74.72
2019-04-14T19:48:03.494Z,74.75
2019-04-14T19:50:34.525Z,74.86
2019-04-14T19:53:05.803Z,74.56
2019-04-14T19:55:37.316Z,75.01
2019-04-14T19:58:08.945Z,74.94
2019-04-14T20:00:40.060Z,74.90
2019-04-14T20:03:11.490Z,75.31
2019-04-14T20:05:42.404Z,75.03
2019-04-14T20:08:13.621Z,75.09
2019-04-14T20:10:44.637Z,75.45
2019-04-14T20:13:14.930Z,75.47
2019-04-14T20:16:00.201Z,75.52
2019-04-14T20:18:32.848Z,75.61
2019-04-14T20:21:22.353Z,75.58
2019-04-14T20:24:03.996Z,75.95
2019-04-14T20:26:53.610Z,76.17
2019-04-14T20:29:26.202Z,76.40
2019-04-14T20:31:59.143Z,76.40
2019-04-14T20:34:30.040Z,76.35
2019-04-14T20:37:01.365Z,76.21
2019-04-14T20:39:33.005Z,76.53
2019-04-14T20:42:05.389Z,76.60
2019-04-14T20:44:36.534Z,76.92
2019-04-14T20:47:09.023Z,76.71
2019-04-14T20:49:40.062Z,77.08
2019-04-14T20:52:11.409Z,77.24
2019-04-14T20:54:42.393Z,77.21
2019-04-14T20:57:13.697Z,77.50
2019-04-14T20:59:44.929Z,77.70
2019-04-14T21:02:31.852Z,77.85
2019-04-14T21:05:20.901Z,78.04
2019-04-14T21:08:09.159Z,77.86
2019-04-14T21:10:44.921Z,77.86
2019-04-14T21:13:19.665Z,78.09
2019-04-14T21:16:12.148Z,78.23
2019-04-14T21:18:37.403Z,78.05
2019-04-14T21:21:10.270Z,78.36
2019-04-14T21:23:45.614Z,78.27
2019-04-14T21:26:29.918Z,78.57
2019-04-14T21:29:02.575Z,78.52
2019-04-14T21:31:35.358Z,78.25
2019-04-14T21:34:16.946Z,78.58
2019-04-14T21:36:49.659Z,78.58
2019-04-14T21:39:40.779Z,78.48
2019-04-14T21:42:12.343Z,78.73
2019-04-14T21:44:43.376Z,79.24
2019-04-14T21:47:14.792Z,79.14
2019-04-14T21:49:45.690Z,79.54
2019-04-14T21:52:24.555Z,79.50
2019-04-14T21:54:55.657Z,79.45
2019-04-14T21:57:28.556Z,79.49
2019-04-14T22:00:13.001Z,79.60
2019-04-14T22:03:02.176Z,79.68
2019-04-14T22:05:44.153Z,79.76
2019-04-14T22:08:17.180Z,79.78
2019-04-14T22:10:55.919Z,79.93
2019-04-14T22:13:27.219Z,79.88
2019-04-14T22:15:58.216Z,80.07
2019-04-14T22:18:28.462Z,80.35
2019-04-14T22:20:59.599Z,80.43
2019-04-14T22:23:30.579Z,80.34
2019-04-14T22:26:01.716Z,80.27
2019-04-14T22:28:32.749Z,80.40
2019-04-14T22:31:04.055Z,80.32
2019-04-14T22:33:35.102Z,80.22
2019-04-14T22:36:06.432Z,80.45
2019-04-14T22:38:37.529Z,80.63
2019-04-14T22:41:08.829Z,80.71
2019-04-14T22:43:39.816Z,80.71
2019-04-14T22:46:11.417Z,80.42
2019-04-14T22:48:42.473Z,80.78
2019-04-14T22:51:12.571Z,80.87
2019-04-14T22:53:43.892Z,80.74
2019-04-14T22:56:14.966Z,80.67
2019-04-14T22:58:46.355Z,80.71
2019-04-14T23:01:24.177Z,80.67
2019-04-14T23:03:56.984Z,80.97
2019-04-14T23:06:45.976Z,80.51
2019-04-14T23:09:24.509Z,80.79
2019-04-14T23:12:09.211Z,80.95
2019-04-14T23:14:57.847Z,80.89
2019-04-14T23:17:30.542Z,80.90
2019-04-14T23:20:23.111Z,80.84
2019-04-14T23:23:04.833Z,80.85
2019-04-14T23:25:35.987Z,80.84
2019-04-14T23:28:07.039Z,81.04
2019-04-14T23:30:38.366Z,81.51
2019-04-14T23:33:09.281Z,81.27
2019-04-14T23:35:40.413Z,81.48
2019-04-14T23:38:11.414Z,81.39
2019-04-14T23:40:42.634Z,81.06
2019-04-14T23:43:13.782Z,81.26
2019-04-14T23:45:43.920Z,81.31
2019-04-14T23:48:15.219Z,81.18
2019-04-14T23:50:46.366Z,81.20
2019-04-14T23:53:17.747Z,81.37
2019-04-14T23:55:50.132Z,81.40
2019-04-14T23:58:21.485Z,81.51
